Terminal Aerodrome Forecast
Issued by NWS

Home | Current Version | Previous Version | Text Only | Print | Product List | Glossary On
Versions: 1 2 3 4 5 6 7 8 9 10 11 12 13
000
FTUS42 KMLB 282300
TAFISM
TAF
KISM 282328Z 2900/2924 10009KT P6SM SCT040 SCT100
     FM290300 12003KT P6SM FEW030 SCT100
     FM291500 13006KT P6SM SCT040
     FM292000 12008KT P6SM VCTS SCT030CB BKN060
      AMD NOT SKED 2902/2911=

USA.gov is the U.S. government's official web portal to all federal, state and local government web resources and services.